sensor_id;sensor_type;location;lat;lon;timestamp;P1;durP1;ratioP1;P2;durP2;ratioP2
78057;SDS011;67265;52.514;13.292;2023-02-23T00:00:40;17.67;;;7.93;;
78057;SDS011;67265;52.514;13.292;2023-02-23T00:03:08;18.35;;;7.25;;
78057;SDS011;67265;52.514;13.292;2023-02-23T00:05:35;21.38;;;7.78;;
78057;SDS011;67265;52.514;13.292;2023-02-23T00:08:01;20.67;;;7.75;;
78057;SDS011;67265;52.514;13.292;2023-02-23T00:10:26;21.35;;;8.07;;
78057;SDS011;67265;52.514;13.292;2023-02-23T00:12:58;25.83;;;8.43;;
78057;SDS011;67265;52.514;13.292;2023-02-23T00:15:25;21.85;;;8.32;;
78057;SDS011;67265;52.514;13.292;2023-02-23T00:17:57;19.63;;;9.07;;
78057;SDS011;67265;52.514;13.292;2023-02-23T00:20:23;22.60;;;6.85;;
78057;SDS011;67265;52.514;13.292;2023-02-23T00:22:54;24.67;;;8.30;;
78057;SDS011;67265;52.514;13.292;2023-02-23T00:25:21;23.48;;;8.45;;
78057;SDS011;67265;52.514;13.292;2023-02-23T00:27:47;16.33;;;8.10;;
78057;SDS011;67265;52.514;13.292;2023-02-23T00:30:13;19.85;;;7.90;;
78057;SDS011;67265;52.514;13.292;2023-02-23T00:32:40;18.58;;;7.90;;
78057;SDS011;67265;52.514;13.292;2023-02-23T00:35:06;22.77;;;7.93;;
78057;SDS011;67265;52.514;13.292;2023-02-23T00:37:45;22.10;;;8.50;;
78057;SDS011;67265;52.514;13.292;2023-02-23T00:40:12;17.35;;;7.18;;
78057;SDS011;67265;52.514;13.292;2023-02-23T00:42:40;19.85;;;7.65;;
78057;SDS011;67265;52.514;13.292;2023-02-23T00:45:09;20.80;;;7.63;;
78057;SDS011;67265;52.514;13.292;2023-02-23T00:47:37;21.48;;;8.30;;
78057;SDS011;67265;52.514;13.292;2023-02-23T00:50:03;23.75;;;9.00;;
78057;SDS011;67265;52.514;13.292;2023-02-23T00:52:29;19.13;;;8.13;;
78057;SDS011;67265;52.514;13.292;2023-02-23T00:54:54;23.80;;;9.52;;
78057;SDS011;67265;52.514;13.292;2023-02-23T00:57:20;22.42;;;7.75;;
78057;SDS011;67265;52.514;13.292;2023-02-23T00:59:46;27.50;;;8.35;;
78057;SDS011;67265;52.514;13.292;2023-02-23T01:02:12;18.95;;;7.60;;
78057;SDS011;67265;52.514;13.292;2023-02-23T01:04:37;27.88;;;8.77;;
78057;SDS011;67265;52.514;13.292;2023-02-23T01:07:02;22.52;;;7.43;;
78057;SDS011;67265;52.514;13.292;2023-02-23T01:09:30;24.50;;;9.02;;
78057;SDS011;67265;52.514;13.292;2023-02-23T01:11:56;23.10;;;9.52;;
78057;SDS011;67265;52.514;13.292;2023-02-23T01:14:25;23.65;;;10.73;;
78057;SDS011;67265;52.514;13.292;2023-02-23T01:16:51;18.13;;;8.52;;
78057;SDS011;67265;52.514;13.292;2023-02-23T01:19:17;20.98;;;9.07;;
78057;SDS011;67265;52.514;13.292;2023-02-23T01:21:42;23.73;;;8.85;;
78057;SDS011;67265;52.514;13.292;2023-02-23T01:24:08;25.40;;;8.82;;
78057;SDS011;67265;52.514;13.292;2023-02-23T01:26:35;22.60;;;9.02;;
78057;SDS011;67265;52.514;13.292;2023-02-23T01:29:03;21.55;;;9.00;;
78057;SDS011;67265;52.514;13.292;2023-02-23T01:31:32;19.50;;;8.23;;
78057;SDS011;67265;52.514;13.292;2023-02-23T01:33:59;22.13;;;10.00;;
78057;SDS011;67265;52.514;13.292;2023-02-23T01:36:26;27.80;;;10.82;;
78057;SDS011;67265;52.514;13.292;2023-02-23T01:38:55;24.90;;;8.55;;
78057;SDS011;67265;52.514;13.292;2023-02-23T01:41:25;20.73;;;8.93;;
78057;SDS011;67265;52.514;13.292;2023-02-23T01:43:55;23.50;;;8.63;;
78057;SDS011;67265;52.514;13.292;2023-02-23T01:46:36;20.77;;;9.15;;
78057;SDS011;67265;52.514;13.292;2023-02-23T01:49:07;24.48;;;9.10;;
78057;SDS011;67265;52.514;13.292;2023-02-23T01:51:40;16.70;;;7.55;;
78057;SDS011;67265;52.514;13.292;2023-02-23T01:54:41;26.75;;;9.02;;
78057;SDS011;67265;52.514;13.292;2023-02-23T01:57:00;23.15;;;9.20;;
78057;SDS011;67265;52.514;13.292;2023-02-23T01:59:31;23.35;;;10.10;;
78057;SDS011;67265;52.514;13.292;2023-02-23T02:01:59;20.30;;;7.82;;
78057;SDS011;67265;52.514;13.292;2023-02-23T02:04:24;29.23;;;9.23;;
78057;SDS011;67265;52.514;13.292;2023-02-23T02:06:50;21.38;;;9.88;;
78057;SDS011;67265;52.514;13.292;2023-02-23T02:09:18;28.30;;;10.13;;
78057;SDS011;67265;52.514;13.292;2023-02-23T02:11:44;19.10;;;8.30;;
78057;SDS011;67265;52.514;13.292;2023-02-23T02:34:44;21.88;;;9.38;;
78057;SDS011;67265;52.514;13.292;2023-02-23T02:40:14;24.10;;;10.32;;
78057;SDS011;67265;52.514;13.292;2023-02-23T02:45:40;20.92;;;8.90;;
78057;SDS011;67265;52.514;13.292;2023-02-23T02:48:11;30.23;;;10.80;;
78057;SDS011;67265;52.514;13.292;2023-02-23T02:50:42;23.92;;;9.73;;
78057;SDS011;67265;52.514;13.292;2023-02-23T02:56:08;23.10;;;10.15;;
78057;SDS011;67265;52.514;13.292;2023-02-23T02:58:36;27.92;;;10.93;;
78057;SDS011;67265;52.514;13.292;2023-02-23T03:01:12;20.60;;;9.60;;
78057;SDS011;67265;52.514;13.292;2023-02-23T03:03:57;21.23;;;9.60;;
78057;SDS011;67265;52.514;13.292;2023-02-23T03:16:07;22.65;;;8.98;;
78057;SDS011;67265;52.514;13.292;2023-02-23T03:19:14;20.88;;;8.77;;
78057;SDS011;67265;52.514;13.292;2023-02-23T03:25:00;24.33;;;10.15;;
78057;SDS011;67265;52.514;13.292;2023-02-23T03:27:53;30.05;;;11.27;;
78057;SDS011;67265;52.514;13.292;2023-02-23T03:30:46;27.67;;;10.23;;
78057;SDS011;67265;52.514;13.292;2023-02-23T03:33:39;22.92;;;8.57;;
78057;SDS011;67265;52.514;13.292;2023-02-23T03:36:27;23.48;;;10.23;;
78057;SDS011;67265;52.514;13.292;2023-02-23T03:39:23;26.92;;;9.30;;
78057;SDS011;67265;52.514;13.292;2023-02-23T03:42:11;28.42;;;10.35;;
78057;SDS011;67265;52.514;13.292;2023-02-23T03:44:57;24.08;;;9.77;;
78057;SDS011;67265;52.514;13.292;2023-02-23T03:47:42;29.80;;;10.82;;
78057;SDS011;67265;52.514;13.292;2023-02-23T03:50:29;26.45;;;10.73;;
78057;SDS011;67265;52.514;13.292;2023-02-23T03:53:17;21.48;;;11.02;;
78057;SDS011;67265;52.514;13.292;2023-02-23T03:56:06;26.17;;;8.65;;
78057;SDS011;67265;52.514;13.292;2023-02-23T03:58:52;30.20;;;10.75;;
78057;SDS011;67265;52.514;13.292;2023-02-23T04:01:40;24.92;;;10.85;;
78057;SDS011;67265;52.514;13.292;2023-02-23T04:04:24;25.92;;;11.88;;
78057;SDS011;67265;52.514;13.292;2023-02-23T04:07:08;23.08;;;8.65;;
78057;SDS011;67265;52.514;13.292;2023-02-23T04:09:52;22.77;;;8.95;;
78057;SDS011;67265;52.514;13.292;2023-02-23T04:12:50;23.65;;;11.32;;
78057;SDS011;67265;52.514;13.292;2023-02-23T04:15:36;21.67;;;10.68;;
78057;SDS011;67265;52.514;13.292;2023-02-23T04:18:06;23.42;;;9.73;;
78057;SDS011;67265;52.514;13.292;2023-02-23T04:20:32;30.60;;;10.77;;
78057;SDS011;67265;52.514;13.292;2023-02-23T04:22:57;26.58;;;9.77;;
78057;SDS011;67265;52.514;13.292;2023-02-23T04:25:23;23.92;;;9.55;;
78057;SDS011;67265;52.514;13.292;2023-02-23T04:27:49;30.63;;;11.73;;
78057;SDS011;67265;52.514;13.292;2023-02-23T04:30:14;25.48;;;10.98;;
78057;SDS011;67265;52.514;13.292;2023-02-23T04:32:40;34.85;;;10.70;;
78057;SDS011;67265;52.514;13.292;2023-02-23T04:35:05;23.75;;;9.90;;
78057;SDS011;67265;52.514;13.292;2023-02-23T04:37:31;29.15;;;11.70;;
78057;SDS011;67265;52.514;13.292;2023-02-23T04:39:57;25.50;;;11.38;;
78057;SDS011;67265;52.514;13.292;2023-02-23T04:42:22;26.42;;;11.30;;
78057;SDS011;67265;52.514;13.292;2023-02-23T04:44:47;28.35;;;10.40;;
78057;SDS011;67265;52.514;13.292;2023-02-23T04:47:13;32.17;;;10.75;;
78057;SDS011;67265;52.514;13.292;2023-02-23T04:49:39;26.35;;;9.85;;
78057;SDS011;67265;52.514;13.292;2023-02-23T04:52:05;26.80;;;10.98;;
78057;SDS011;67265;52.514;13.292;2023-02-23T04:54:30;29.27;;;11.75;;
78057;SDS011;67265;52.514;13.292;2023-02-23T04:56:56;28.85;;;11.07;;
78057;SDS011;67265;52.514;13.292;2023-02-23T04:59:21;28.50;;;12.68;;
78057;SDS011;67265;52.514;13.292;2023-02-23T05:01:46;34.42;;;12.75;;
78057;SDS011;67265;52.514;13.292;2023-02-23T05:04:12;26.50;;;10.05;;
78057;SDS011;67265;52.514;13.292;2023-02-23T05:06:37;28.15;;;11.80;;
78057;SDS011;67265;52.514;13.292;2023-02-23T05:09:03;31.80;;;12.30;;
78057;SDS011;67265;52.514;13.292;2023-02-23T05:11:30;27.48;;;10.98;;
78057;SDS011;67265;52.514;13.292;2023-02-23T05:13:56;26.55;;;10.30;;
78057;SDS011;67265;52.514;13.292;2023-02-23T05:16:21;24.88;;;11.00;;
78057;SDS011;67265;52.514;13.292;2023-02-23T05:18:46;31.75;;;11.95;;
78057;SDS011;67265;52.514;13.292;2023-02-23T05:21:12;29.55;;;11.43;;
78057;SDS011;67265;52.514;13.292;2023-02-23T05:23:37;30.33;;;11.93;;
78057;SDS011;67265;52.514;13.292;2023-02-23T05:26:05;23.20;;;10.82;;
78057;SDS011;67265;52.514;13.292;2023-02-23T05:28:32;28.92;;;11.05;;
78057;SDS011;67265;52.514;13.292;2023-02-23T05:30:59;24.98;;;10.27;;
78057;SDS011;67265;52.514;13.292;2023-02-23T05:33:24;27.58;;;10.35;;
78057;SDS011;67265;52.514;13.292;2023-02-23T05:35:49;27.52;;;10.07;;
78057;SDS011;67265;52.514;13.292;2023-02-23T05:38:15;27.92;;;9.80;;
78057;SDS011;67265;52.514;13.292;2023-02-23T05:40:40;28.13;;;9.90;;
78057;SDS011;67265;52.514;13.292;2023-02-23T05:43:06;28.70;;;10.60;;
78057;SDS011;67265;52.514;13.292;2023-02-23T05:45:31;29.25;;;10.25;;
78057;SDS011;67265;52.514;13.292;2023-02-23T05:47:57;28.67;;;12.52;;
78057;SDS011;67265;52.514;13.292;2023-02-23T05:50:23;24.25;;;10.65;;
78057;SDS011;67265;52.514;13.292;2023-02-23T05:52:48;25.52;;;10.35;;
78057;SDS011;67265;52.514;13.292;2023-02-23T05:55:13;23.42;;;9.55;;
78057;SDS011;67265;52.514;13.292;2023-02-23T05:57:39;25.77;;;10.57;;
78057;SDS011;67265;52.514;13.292;2023-02-23T06:00:08;25.88;;;10.52;;
78057;SDS011;67265;52.514;13.292;2023-02-23T06:02:34;26.30;;;10.63;;
78057;SDS011;67265;52.514;13.292;2023-02-23T06:05:00;26.33;;;12.35;;
78057;SDS011;67265;52.514;13.292;2023-02-23T06:07:25;30.33;;;11.48;;
78057;SDS011;67265;52.514;13.292;2023-02-23T06:09:51;31.95;;;12.60;;
78057;SDS011;67265;52.514;13.292;2023-02-23T06:12:16;24.98;;;10.65;;
78057;SDS011;67265;52.514;13.292;2023-02-23T06:14:41;29.23;;;10.32;;
78057;SDS011;67265;52.514;13.292;2023-02-23T06:17:07;31.05;;;10.23;;
78057;SDS011;67265;52.514;13.292;2023-02-23T06:19:32;24.67;;;9.55;;
78057;SDS011;67265;52.514;13.292;2023-02-23T06:21:58;33.40;;;10.82;;
78057;SDS011;67265;52.514;13.292;2023-02-23T06:24:23;23.33;;;11.13;;
78057;SDS011;67265;52.514;13.292;2023-02-23T06:26:49;30.95;;;10.45;;
78057;SDS011;67265;52.514;13.292;2023-02-23T06:29:14;34.83;;;12.98;;
78057;SDS011;67265;52.514;13.292;2023-02-23T06:31:41;25.02;;;10.73;;
78057;SDS011;67265;52.514;13.292;2023-02-23T06:34:07;30.20;;;11.65;;
78057;SDS011;67265;52.514;13.292;2023-02-23T06:36:32;25.42;;;11.63;;
78057;SDS011;67265;52.514;13.292;2023-02-23T06:38:58;26.30;;;10.88;;
78057;SDS011;67265;52.514;13.292;2023-02-23T06:41:24;27.20;;;11.82;;
78057;SDS011;67265;52.514;13.292;2023-02-23T06:43:49;35.83;;;12.63;;
78057;SDS011;67265;52.514;13.292;2023-02-23T06:46:16;25.42;;;10.10;;
78057;SDS011;67265;52.514;13.292;2023-02-23T06:48:41;25.58;;;9.95;;
78057;SDS011;67265;52.514;13.292;2023-02-23T06:51:07;27.02;;;12.00;;
78057;SDS011;67265;52.514;13.292;2023-02-23T06:53:32;25.10;;;10.93;;
78057;SDS011;67265;52.514;13.292;2023-02-23T06:55:58;27.02;;;12.10;;
78057;SDS011;67265;52.514;13.292;2023-02-23T06:58:23;22.75;;;11.00;;
78057;SDS011;67265;52.514;13.292;2023-02-23T07:00:49;27.80;;;9.73;;
78057;SDS011;67265;52.514;13.292;2023-02-23T07:03:15;29.88;;;9.40;;
78057;SDS011;67265;52.514;13.292;2023-02-23T07:05:40;25.75;;;11.23;;
78057;SDS011;67265;52.514;13.292;2023-02-23T07:08:05;23.75;;;11.02;;
78057;SDS011;67265;52.514;13.292;2023-02-23T07:10:31;20.60;;;9.85;;
78057;SDS011;67265;52.514;13.292;2023-02-23T07:12:57;24.15;;;10.93;;
78057;SDS011;67265;52.514;13.292;2023-02-23T07:15:23;22.52;;;9.52;;
78057;SDS011;67265;52.514;13.292;2023-02-23T07:17:49;23.80;;;10.02;;
78057;SDS011;67265;52.514;13.292;2023-02-23T07:20:16;33.22;;;11.05;;
78057;SDS011;67265;52.514;13.292;2023-02-23T07:22:42;26.05;;;10.95;;
78057;SDS011;67265;52.514;13.292;2023-02-23T07:25:08;23.95;;;10.90;;
78057;SDS011;67265;52.514;13.292;2023-02-23T07:27:33;21.95;;;9.40;;
78057;SDS011;67265;52.514;13.292;2023-02-23T07:29:59;24.63;;;11.13;;
78057;SDS011;67265;52.514;13.292;2023-02-23T07:32:27;26.30;;;9.82;;
78057;SDS011;67265;52.514;13.292;2023-02-23T07:34:53;23.05;;;10.55;;
78057;SDS011;67265;52.514;13.292;2023-02-23T07:37:18;23.08;;;11.18;;
78057;SDS011;67265;52.514;13.292;2023-02-23T07:39:43;18.45;;;10.30;;
78057;SDS011;67265;52.514;13.292;2023-02-23T07:42:09;24.52;;;11.15;;
78057;SDS011;67265;52.514;13.292;2023-02-23T07:44:35;26.48;;;11.32;;
78057;SDS011;67265;52.514;13.292;2023-02-23T07:47:02;23.60;;;9.68;;
78057;SDS011;67265;52.514;13.292;2023-02-23T07:49:27;25.23;;;11.55;;
78057;SDS011;67265;52.514;13.292;2023-02-23T07:51:54;21.98;;;10.70;;
78057;SDS011;67265;52.514;13.292;2023-02-23T07:54:20;25.92;;;11.52;;
78057;SDS011;67265;52.514;13.292;2023-02-23T07:56:46;27.88;;;12.65;;
78057;SDS011;67265;52.514;13.292;2023-02-23T07:59:11;23.38;;;10.32;;
78057;SDS011;67265;52.514;13.292;2023-02-23T08:01:36;30.52;;;11.52;;
78057;SDS011;67265;52.514;13.292;2023-02-23T08:04:02;22.25;;;10.65;;
78057;SDS011;67265;52.514;13.292;2023-02-23T08:06:27;22.45;;;10.27;;
78057;SDS011;67265;52.514;13.292;2023-02-23T08:08:54;23.05;;;9.70;;
78057;SDS011;67265;52.514;13.292;2023-02-23T08:11:19;24.02;;;10.40;;
78057;SDS011;67265;52.514;13.292;2023-02-23T08:13:44;22.40;;;10.48;;
78057;SDS011;67265;52.514;13.292;2023-02-23T08:16:10;24.92;;;10.93;;
78057;SDS011;67265;52.514;13.292;2023-02-23T08:18:36;23.65;;;10.25;;
78057;SDS011;67265;52.514;13.292;2023-02-23T08:21:02;24.92;;;11.63;;
78057;SDS011;67265;52.514;13.292;2023-02-23T08:23:29;20.30;;;9.82;;
78057;SDS011;67265;52.514;13.292;2023-02-23T08:25:55;22.95;;;10.15;;
78057;SDS011;67265;52.514;13.292;2023-02-23T08:28:22;22.33;;;10.98;;
78057;SDS011;67265;52.514;13.292;2023-02-23T08:30:48;26.20;;;11.05;;
78057;SDS011;67265;52.514;13.292;2023-02-23T08:33:14;23.95;;;10.10;;
78057;SDS011;67265;52.514;13.292;2023-02-23T08:35:39;24.40;;;10.48;;
78057;SDS011;67265;52.514;13.292;2023-02-23T08:38:04;20.13;;;10.35;;
78057;SDS011;67265;52.514;13.292;2023-02-23T08:40:29;21.75;;;10.25;;
78057;SDS011;67265;52.514;13.292;2023-02-23T08:42:55;21.13;;;9.90;;
78057;SDS011;67265;52.514;13.292;2023-02-23T08:45:20;24.85;;;10.70;;
78057;SDS011;67265;52.514;13.292;2023-02-23T08:47:45;24.23;;;10.52;;
78057;SDS011;67265;52.514;13.292;2023-02-23T08:50:11;23.23;;;10.20;;
78057;SDS011;67265;52.514;13.292;2023-02-23T08:52:37;25.65;;;11.68;;
78057;SDS011;67265;52.514;13.292;2023-02-23T08:55:04;18.58;;;10.55;;
78057;SDS011;67265;52.514;13.292;2023-02-23T08:57:33;25.35;;;12.18;;
78057;SDS011;67265;52.514;13.292;2023-02-23T08:59:59;22.80;;;10.65;;
78057;SDS011;67265;52.514;13.292;2023-02-23T09:02:24;23.70;;;10.45;;
78057;SDS011;67265;52.514;13.292;2023-02-23T09:04:51;24.95;;;9.60;;
78057;SDS011;67265;52.514;13.292;2023-02-23T09:07:19;22.95;;;10.35;;
78057;SDS011;67265;52.514;13.292;2023-02-23T09:09:52;24.52;;;9.70;;
78057;SDS011;67265;52.514;13.292;2023-02-23T09:12:18;22.58;;;10.90;;
78057;SDS011;67265;52.514;13.292;2023-02-23T09:14:44;25.23;;;11.48;;
78057;SDS011;67265;52.514;13.292;2023-02-23T09:17:09;25.50;;;10.85;;
78057;SDS011;67265;52.514;13.292;2023-02-23T09:19:35;22.45;;;10.88;;
78057;SDS011;67265;52.514;13.292;2023-02-23T09:22:00;22.73;;;10.15;;
78057;SDS011;67265;52.514;13.292;2023-02-23T09:24:26;22.73;;;10.45;;
78057;SDS011;67265;52.514;13.292;2023-02-23T09:26:51;25.48;;;10.75;;
78057;SDS011;67265;52.514;13.292;2023-02-23T09:29:17;22.58;;;10.27;;
78057;SDS011;67265;52.514;13.292;2023-02-23T09:31:43;23.75;;;10.45;;
78057;SDS011;67265;52.514;13.292;2023-02-23T09:34:08;19.52;;;10.15;;
78057;SDS011;67265;52.514;13.292;2023-02-23T09:36:34;19.90;;;9.18;;
78057;SDS011;67265;52.514;13.292;2023-02-23T09:38:59;22.65;;;10.70;;
78057;SDS011;67265;52.514;13.292;2023-02-23T09:46:40;20.92;;;10.38;;
78057;SDS011;67265;52.514;13.292;2023-02-23T09:49:12;20.88;;;10.32;;
78057;SDS011;67265;52.514;13.292;2023-02-23T09:51:43;19.70;;;9.77;;
78057;SDS011;67265;52.514;13.292;2023-02-23T09:54:11;23.63;;;10.80;;
78057;SDS011;67265;52.514;13.292;2023-02-23T09:56:38;20.50;;;9.10;;
78057;SDS011;67265;52.514;13.292;2023-02-23T09:59:05;19.92;;;10.07;;
78057;SDS011;67265;52.514;13.292;2023-02-23T10:06:51;19.48;;;9.85;;
78057;SDS011;67265;52.514;13.292;2023-02-23T10:09:27;21.30;;;10.43;;
78057;SDS011;67265;52.514;13.292;2023-02-23T10:20:57;19.67;;;9.80;;
78057;SDS011;67265;52.514;13.292;2023-02-23T10:23:40;23.52;;;10.05;;
78057;SDS011;67265;52.514;13.292;2023-02-23T10:26:11;22.10;;;10.77;;
78057;SDS011;67265;52.514;13.292;2023-02-23T10:28:40;20.42;;;10.40;;
78057;SDS011;67265;52.514;13.292;2023-02-23T10:31:13;18.10;;;8.85;;
78057;SDS011;67265;52.514;13.292;2023-02-23T10:33:47;18.98;;;10.43;;
78057;SDS011;67265;52.514;13.292;2023-02-23T10:36:15;21.35;;;10.63;;
78057;SDS011;67265;52.514;13.292;2023-02-23T10:38:45;23.60;;;11.27;;
78057;SDS011;67265;52.514;13.292;2023-02-23T10:41:11;18.30;;;9.82;;
78057;SDS011;67265;52.514;13.292;2023-02-23T10:43:37;20.83;;;11.45;;
78057;SDS011;67265;52.514;13.292;2023-02-23T10:46:02;20.08;;;10.07;;
78057;SDS011;67265;52.514;13.292;2023-02-23T10:48:36;23.17;;;11.43;;
78057;SDS011;67265;52.514;13.292;2023-02-23T10:51:05;21.70;;;10.48;;
78057;SDS011;67265;52.514;13.292;2023-02-23T10:53:32;20.33;;;10.93;;
78057;SDS011;67265;52.514;13.292;2023-02-23T10:56:13;21.63;;;10.98;;
78057;SDS011;67265;52.514;13.292;2023-02-23T11:01:08;20.77;;;10.40;;
78057;SDS011;67265;52.514;13.292;2023-02-23T11:06:05;22.00;;;12.05;;
78057;SDS011;67265;52.514;13.292;2023-02-23T11:08:35;19.52;;;11.00;;
78057;SDS011;67265;52.514;13.292;2023-02-23T11:13:33;19.17;;;10.32;;
78057;SDS011;67265;52.514;13.292;2023-02-23T11:18:29;21.67;;;11.38;;
78057;SDS011;67265;52.514;13.292;2023-02-23T11:20:55;23.58;;;11.57;;
78057;SDS011;67265;52.514;13.292;2023-02-23T11:23:33;24.27;;;11.13;;
78057;SDS011;67265;52.514;13.292;2023-02-23T11:26:01;21.83;;;10.95;;
78057;SDS011;67265;52.514;13.292;2023-02-23T11:28:47;20.77;;;11.93;;
78057;SDS011;67265;52.514;13.292;2023-02-23T11:31:18;20.77;;;10.30;;
78057;SDS011;67265;52.514;13.292;2023-02-23T11:33:45;21.10;;;11.18;;
78057;SDS011;67265;52.514;13.292;2023-02-23T11:41:29;24.25;;;11.35;;
78057;SDS011;67265;52.514;13.292;2023-02-23T11:43:57;23.55;;;11.32;;
78057;SDS011;67265;52.514;13.292;2023-02-23T11:46:23;21.10;;;11.50;;
78057;SDS011;67265;52.514;13.292;2023-02-23T11:51:29;21.63;;;11.82;;
78057;SDS011;67265;52.514;13.292;2023-02-23T11:53:57;25.95;;;11.68;;
78057;SDS011;67265;52.514;13.292;2023-02-23T11:56:23;23.70;;;12.27;;
78057;SDS011;67265;52.514;13.292;2023-02-23T11:58:50;22.67;;;12.02;;
78057;SDS011;67265;52.514;13.292;2023-02-23T12:01:34;21.42;;;10.20;;
78057;SDS011;67265;52.514;13.292;2023-02-23T12:04:33;20.20;;;11.18;;
78057;SDS011;67265;52.514;13.292;2023-02-23T12:09:44;21.38;;;11.35;;
78057;SDS011;67265;52.514;13.292;2023-02-23T12:12:16;18.85;;;11.38;;
78057;SDS011;67265;52.514;13.292;2023-02-23T12:14:52;22.33;;;11.02;;
78057;SDS011;67265;52.514;13.292;2023-02-23T12:17:24;21.25;;;10.98;;
78057;SDS011;67265;52.514;13.292;2023-02-23T12:19:54;21.35;;;12.20;;
78057;SDS011;67265;52.514;13.292;2023-02-23T12:23:24;22.63;;;11.88;;
78057;SDS011;67265;52.514;13.292;2023-02-23T12:25:32;21.67;;;11.40;;
78057;SDS011;67265;52.514;13.292;2023-02-23T12:30:38;23.25;;;12.57;;
78057;SDS011;67265;52.514;13.292;2023-02-23T12:44:34;22.45;;;12.43;;
78057;SDS011;67265;52.514;13.292;2023-02-23T12:47:12;23.27;;;12.40;;
78057;SDS011;67265;52.514;13.292;2023-02-23T12:49:45;22.13;;;11.88;;
78057;SDS011;67265;52.514;13.292;2023-02-23T12:52:19;23.80;;;12.15;;
78057;SDS011;67265;52.514;13.292;2023-02-23T12:54:46;24.88;;;12.23;;
78057;SDS011;67265;52.514;13.292;2023-02-23T12:57:34;24.92;;;12.98;;
78057;SDS011;67265;52.514;13.292;2023-02-23T13:00:34;23.23;;;13.65;;
78057;SDS011;67265;52.514;13.292;2023-02-23T13:05:54;25.88;;;12.50;;
78057;SDS011;67265;52.514;13.292;2023-02-23T13:14:08;25.65;;;12.45;;
78057;SDS011;67265;52.514;13.292;2023-02-23T13:17:13;21.95;;;12.00;;
78057;SDS011;67265;52.514;13.292;2023-02-23T13:19:44;23.30;;;11.90;;
78057;SDS011;67265;52.514;13.292;2023-02-23T13:24:51;22.92;;;12.43;;
78057;SDS011;67265;52.514;13.292;2023-02-23T13:27:23;22.38;;;11.60;;
78057;SDS011;67265;52.514;13.292;2023-02-23T13:29:51;24.25;;;12.05;;
78057;SDS011;67265;52.514;13.292;2023-02-23T13:32:22;24.08;;;12.48;;
78057;SDS011;67265;52.514;13.292;2023-02-23T13:37:38;24.70;;;13.07;;
78057;SDS011;67265;52.514;13.292;2023-02-23T13:45:27;24.73;;;13.95;;
78057;SDS011;67265;52.514;13.292;2023-02-23T13:47:56;25.77;;;13.68;;
78057;SDS011;67265;52.514;13.292;2023-02-23T13:56:17;24.20;;;12.95;;
78057;SDS011;67265;52.514;13.292;2023-02-23T13:58:47;27.38;;;14.10;;
78057;SDS011;67265;52.514;13.292;2023-02-23T14:01:16;27.25;;;16.10;;
78057;SDS011;67265;52.514;13.292;2023-02-23T14:03:46;28.35;;;15.93;;
78057;SDS011;67265;52.514;13.292;2023-02-23T14:06:17;30.33;;;16.23;;
78057;SDS011;67265;52.514;13.292;2023-02-23T14:08:44;27.33;;;14.68;;
78057;SDS011;67265;52.514;13.292;2023-02-23T14:11:20;27.05;;;15.05;;
78057;SDS011;67265;52.514;13.292;2023-02-23T14:13:59;32.30;;;15.90;;
78057;SDS011;67265;52.514;13.292;2023-02-23T14:16:26;28.90;;;14.52;;
78057;SDS011;67265;52.514;13.292;2023-02-23T14:21:30;31.80;;;16.20;;
78057;SDS011;67265;52.514;13.292;2023-02-23T14:24:23;29.40;;;14.73;;
78057;SDS011;67265;52.514;13.292;2023-02-23T14:29:28;5.78;;;3.20;;
78057;SDS011;67265;52.514;13.292;2023-02-23T14:34:57;8.82;;;2.33;;
78057;SDS011;67265;52.514;13.292;2023-02-23T14:37:24;12.98;;;3.03;;
78057;SDS011;67265;52.514;13.292;2023-02-23T14:39:50;4.80;;;2.40;;
78057;SDS011;67265;52.514;13.292;2023-02-23T14:42:22;3.78;;;2.05;;
78057;SDS011;67265;52.514;13.292;2023-02-23T14:44:49;9.80;;;2.25;;
78057;SDS011;67265;52.514;13.292;2023-02-23T14:47:19;4.00;;;2.45;;
78057;SDS011;67265;52.514;13.292;2023-02-23T14:52:22;28.00;;;16.33;;
78057;SDS011;67265;52.514;13.292;2023-02-23T14:54:49;27.40;;;15.98;;
78057;SDS011;67265;52.514;13.292;2023-02-23T14:57:17;30.20;;;16.95;;
78057;SDS011;67265;52.514;13.292;2023-02-23T14:59:44;32.65;;;17.98;;
78057;SDS011;67265;52.514;13.292;2023-02-23T15:02:15;33.92;;;17.42;;
78057;SDS011;67265;52.514;13.292;2023-02-23T15:04:42;33.53;;;17.75;;
78057;SDS011;67265;52.514;13.292;2023-02-23T15:09:43;33.08;;;16.27;;
78057;SDS011;67265;52.514;13.292;2023-02-23T15:12:13;31.88;;;16.83;;
78057;SDS011;67265;52.514;13.292;2023-02-23T15:14:45;36.13;;;17.50;;
78057;SDS011;67265;52.514;13.292;2023-02-23T15:17:15;36.33;;;17.80;;
78057;SDS011;67265;52.514;13.292;2023-02-23T15:19:42;36.30;;;18.70;;
78057;SDS011;67265;52.514;13.292;2023-02-23T15:22:13;35.97;;;18.88;;
78057;SDS011;67265;52.514;13.292;2023-02-23T15:24:46;39.13;;;17.27;;
78057;SDS011;67265;52.514;13.292;2023-02-23T15:27:16;37.92;;;17.98;;
78057;SDS011;67265;52.514;13.292;2023-02-23T15:29:51;39.22;;;17.48;;
78057;SDS011;67265;52.514;13.292;2023-02-23T15:32:20;39.65;;;19.23;;
78057;SDS011;67265;52.514;13.292;2023-02-23T15:34:49;38.35;;;18.52;;
78057;SDS011;67265;52.514;13.292;2023-02-23T15:37:17;46.70;;;19.35;;
78057;SDS011;67265;52.514;13.292;2023-02-23T15:39:58;37.40;;;18.38;;
78057;SDS011;67265;52.514;13.292;2023-02-23T15:42:36;41.88;;;19.55;;
78057;SDS011;67265;52.514;13.292;2023-02-23T15:45:04;40.60;;;18.92;;
78057;SDS011;67265;52.514;13.292;2023-02-23T15:47:44;43.13;;;20.42;;
78057;SDS011;67265;52.514;13.292;2023-02-23T15:50:14;42.95;;;19.35;;
78057;SDS011;67265;52.514;13.292;2023-02-23T15:52:45;43.97;;;20.67;;
78057;SDS011;67265;52.514;13.292;2023-02-23T15:55:14;41.72;;;20.20;;
78057;SDS011;67265;52.514;13.292;2023-02-23T15:57:46;37.05;;;18.77;;
78057;SDS011;67265;52.514;13.292;2023-02-23T16:00:18;47.38;;;20.90;;
78057;SDS011;67265;52.514;13.292;2023-02-23T16:03:01;49.90;;;21.15;;
78057;SDS011;67265;52.514;13.292;2023-02-23T16:05:29;47.70;;;21.35;;
78057;SDS011;67265;52.514;13.292;2023-02-23T16:08:05;47.20;;;21.08;;
78057;SDS011;67265;52.514;13.292;2023-02-23T16:10:47;48.42;;;22.38;;
78057;SDS011;67265;52.514;13.292;2023-02-23T16:13:15;47.15;;;20.92;;
78057;SDS011;67265;52.514;13.292;2023-02-23T16:15:44;48.70;;;21.88;;
78057;SDS011;67265;52.514;13.292;2023-02-23T16:18:19;50.45;;;23.15;;
78057;SDS011;67265;52.514;13.292;2023-02-23T16:20:51;50.45;;;23.30;;
78057;SDS011;67265;52.514;13.292;2023-02-23T16:23:24;53.70;;;21.98;;
78057;SDS011;67265;52.514;13.292;2023-02-23T16:25:53;61.65;;;25.50;;
78057;SDS011;67265;52.514;13.292;2023-02-23T16:28:21;56.08;;;24.63;;
78057;SDS011;67265;52.514;13.292;2023-02-23T16:30:56;55.42;;;25.90;;
78057;SDS011;67265;52.514;13.292;2023-02-23T16:33:24;60.03;;;25.88;;
78057;SDS011;67265;52.514;13.292;2023-02-23T16:35:53;59.92;;;25.55;;
78057;SDS011;67265;52.514;13.292;2023-02-23T16:38:33;58.40;;;26.63;;
78057;SDS011;67265;52.514;13.292;2023-02-23T16:41:03;60.40;;;26.17;;
78057;SDS011;67265;52.514;13.292;2023-02-23T16:43:29;60.88;;;27.70;;